• Join FlightAware (Why Join?)
  • Login
  • US Flag 
06:37PM EDT


 

Airport Tracker/Info


-or-


 

Live Flight TrackerFlight Track Log ✈ N411AJ ✈ 25-May-2013 ✈ KCOE - KGPI

Flight Track Log - Related Links

Times and Time Zones

All times are in EDT time to prevent confusion due to time zone crossing. See the N411AJ flight status page for this flight to view local times or setup timezone preferences in your user account.

Time Position Orientation Groundspeed Altitude Reporting Facility
EDT Latitude Longitude Course Direction KTS MPH feet Rate Location/Type
03:20PM 47.7500 -116.8519 86° East 158 182 5,300  Level Seattle Center
03:21PM 47.7533 -116.7833 86° East 182 209 9,300 3,540 Climbing Seattle Center
03:22PM 47.7681 -116.7011 75° East 231 266 12,600 2,820 Climbing Seattle Center
03:23PM 47.7917 -116.5817 74° East 308 354 15,100 2,160 Climbing Seattle Center
03:24PM 47.8203 -116.4275 74° East 393 452 17,000 900 Climbing Seattle Center
03:25PM 47.8536 -116.2533 74° East 436 502 17,000  Level Seattle Center
03:26PM 47.8894 -116.0436 76° East 439 505 17,000  Level Seattle Center
03:27PM 47.9208 -115.8700 75° East 435 501 17,000  Level Seattle Center
03:28PM 47.9525 -115.6986 75° East 432 497 17,000  Level Seattle Center
03:29PM 47.9839 -115.5258 75° East 432 497 17,000  Level Seattle Center
03:30PM 48.0139 -115.3533 75° East 432 497 17,000 -1,260 Level Seattle Center
03:31PM 48.0464 -115.1747 75° East 410 472 14,500 -2,460 Descending Seattle Center
03:32PM 48.0392 -115.0336 94° East 365 420 12,000 -2,400 Descending Seattle Center
03:33PM 48.0075 -114.9125 111° Southeast 326 375 9,700 -1,500 Descending Seattle Center
03:34PM 47.9817 -114.8114 111° Southeast 276 318 9,000 -360 Descending Seattle Center
03:35PM 47.9589 -114.7225 111° Southeast 241 277 9,000  Level Seattle Center
03:36PM 47.9678 -114.6233 82° East 262 302 9,000  Level Seattle Center
03:37PM 48.0308 -114.5406 41° Northeast 287 330 9,000 -660 Level Seattle Center
03:38PM 48.1103 -114.4656 32° Northeast 281 323 7,600 -1,200 Descending Salt Lake Center
03:39PM 48.1597 -114.4128 35° Northeast 242 278 6,400 -1,140 Descending Salt Lake Center
03:40PM 48.2019 -114.3689 35° Northeast 210 242 5,300 -960 Descending Salt Lake Center
03:41PM 48.2369 -114.3325 35° Northeast 180 207 4,500 -840 Descending Salt Lake Center
03:42PM 48.2706 -114.2972 35° Northeast 161 185 3,700 -780 Descending Salt Lake Center
03:43PM 48.3097 -114.2564 35° Northeast 150 173 3,000 -720 Descending Salt Lake Center